createdAt,value
2019-04-16T00:00:11.875Z,6.35
2019-04-16T00:02:58.881Z,6.36
2019-04-16T00:05:39.035Z,6.34
2019-04-16T00:08:27.859Z,6.32
2019-04-16T00:10:56.047Z,6.30
2019-04-16T00:13:34.011Z,5.99
2019-04-16T00:16:06.210Z,6.25
2019-04-16T00:18:39.008Z,6.22
2019-04-16T00:21:21.403Z,6.19
2019-04-16T00:23:54.986Z,6.17
2019-04-16T00:26:27.572Z,6.15
2019-04-16T00:29:03.196Z,6.15
2019-04-16T00:31:37.032Z,6.15
2019-04-16T00:34:13.349Z,6.14
2019-04-16T00:36:48.478Z,6.14
2019-04-16T00:39:19.144Z,6.14
2019-04-16T00:41:52.504Z,6.14
2019-04-16T00:44:25.581Z,6.11
2019-04-16T00:46:57.800Z,6.07
2019-04-16T00:49:31.764Z,6.06
2019-04-16T00:52:06.702Z,6.03
2019-04-16T00:54:43.230Z,6.04
2019-04-16T00:57:17.772Z,6.04
2019-04-16T00:59:48.992Z,6.03
2019-04-16T01:02:21.005Z,6.01
2019-04-16T01:04:53.303Z,6.01
2019-04-16T01:07:26.087Z,6.01
2019-04-16T01:09:58.073Z,6.00
2019-04-16T01:12:29.973Z,5.96
2019-04-16T01:15:02.043Z,5.93
2019-04-16T01:17:36.088Z,5.92
2019-04-16T01:20:11.822Z,5.91
2019-04-16T01:22:46.583Z,5.92
2019-04-16T01:25:15.570Z,5.90
2019-04-16T01:27:49.115Z,5.62
2019-04-16T01:30:22.717Z,5.87
2019-04-16T01:33:02.260Z,5.85
2019-04-16T01:35:51.202Z,5.67
2019-04-16T01:38:28.062Z,5.82
2019-04-16T01:41:07.003Z,5.84
2019-04-16T01:43:39.086Z,5.86
2019-04-16T01:46:11.393Z,5.86
2019-04-16T01:48:43.379Z,5.87
2019-04-16T01:51:16.222Z,5.89
2019-04-16T01:53:49.445Z,5.86
2019-04-16T01:56:21.990Z,5.82
2019-04-16T01:58:53.991Z,5.82
2019-04-16T02:01:26.063Z,5.54
2019-04-16T02:03:58.037Z,5.82
2019-04-16T02:06:29.946Z,5.85
2019-04-16T02:09:03.178Z,5.85
2019-04-16T02:11:35.618Z,5.88
2019-04-16T02:14:07.701Z,5.89
2019-04-16T02:16:39.633Z,5.88
2019-04-16T02:19:11.588Z,5.85
2019-04-16T02:21:43.552Z,5.53
2019-04-16T02:24:18.561Z,5.82
2019-04-16T02:26:49.265Z,5.80
2019-04-16T02:29:21.199Z,5.80
2019-04-16T02:31:53.507Z,5.83
2019-04-16T02:34:25.623Z,5.82
2019-04-16T02:37:02.457Z,5.79
2019-04-16T02:39:47.168Z,5.76
2019-04-16T02:42:05.094Z,5.73
2019-04-16T02:44:37.096Z,5.70
2019-04-16T02:47:09.351Z,5.66
2019-04-16T02:49:41.303Z,5.67
2019-04-16T02:52:26.888Z,5.66
2019-04-16T02:55:07.714Z,5.65
2019-04-16T02:57:44.750Z,5.67
2019-04-16T03:00:18.599Z,5.67
2019-04-16T03:02:54.853Z,5.67
2019-04-16T03:05:34.091Z,5.66
2019-04-16T03:08:06.308Z,5.64
2019-04-16T03:10:38.375Z,5.61
2019-04-16T03:13:10.386Z,5.56
2019-04-16T03:15:53.001Z,5.58
2019-04-16T03:18:26.605Z,5.57
2019-04-16T03:20:58.541Z,5.57
2019-04-16T03:23:30.892Z,5.54
2019-04-16T03:26:02.969Z,5.57
2019-04-16T03:28:35.015Z,5.56
2019-04-16T03:31:09.080Z,5.54
2019-04-16T03:33:48.337Z,5.53
2019-04-16T03:36:14.455Z,5.54
2019-04-16T03:38:46.449Z,5.55
2019-04-16T03:41:18.385Z,5.56
2019-04-16T03:43:50.321Z,5.54
2019-04-16T03:46:22.433Z,5.54
2019-04-16T03:48:56.181Z,5.50
2019-04-16T03:51:28.065Z,5.49
2019-04-16T03:54:00.009Z,5.49
2019-04-16T03:56:32.210Z,5.50
2019-04-16T03:59:04.233Z,5.49
2019-04-16T04:01:36.245Z,5.49
2019-04-16T04:04:08.139Z,5.48
2019-04-16T04:06:40.645Z,5.48
2019-04-16T04:09:12.604Z,5.48
2019-04-16T04:11:44.717Z,5.50
2019-04-16T04:14:22.157Z,5.50
2019-04-16T04:16:50.288Z,5.48
2019-04-16T04:19:22.464Z,5.47
2019-04-16T04:21:54.524Z,5.46
2019-04-16T04:24:28.476Z,5.47
2019-04-16T04:27:00.111Z,5.46
2019-04-16T04:29:32.167Z,5.48
2019-04-16T04:32:04.350Z,5.51
2019-04-16T04:34:36.404Z,5.63
2019-04-16T04:37:08.341Z,5.92
2019-04-16T04:39:43.586Z,6.13
2019-04-16T04:42:13.910Z,6.24
2019-04-16T04:44:47.167Z,6.31
2019-04-16T04:47:20.142Z,6.41
2019-04-16T04:49:52.203Z,6.69
2019-04-16T04:52:27.232Z,7.16
2019-04-16T04:54:57.866Z,7.35
2019-04-16T04:57:31.164Z,7.36
2019-04-16T05:00:08.379Z,7.10
2019-04-16T05:02:40.083Z,7.28
2019-04-16T05:05:24.569Z,7.25
2019-04-16T05:07:53.378Z,7.27
2019-04-16T05:10:25.350Z,7.28
2019-04-16T05:12:57.302Z,7.32
2019-04-16T05:15:30.054Z,7.37
2019-04-16T05:18:02.103Z,7.40
2019-04-16T05:20:34.011Z,7.43
2019-04-16T05:23:05.990Z,7.45
2019-04-16T05:25:37.900Z,7.51
2019-04-16T05:28:12.104Z,7.59
2019-04-16T05:30:43.465Z,7.62
2019-04-16T05:33:15.581Z,7.59
2019-04-16T05:35:47.638Z,7.48
2019-04-16T05:38:20.442Z,7.38
2019-04-16T05:40:53.330Z,7.31
2019-04-16T05:43:30.052Z,7.25
2019-04-16T05:45:58.956Z,7.20
2019-04-16T05:48:31.185Z,7.13
2019-04-16T05:51:03.255Z,7.10
2019-04-16T05:53:37.407Z,7.06
2019-04-16T05:56:12.098Z,7.03
2019-04-16T05:58:44.056Z,7.01
2019-04-16T06:01:20.466Z,7.00
2019-04-16T06:03:53.536Z,7.01
2019-04-16T06:06:28.563Z,7.03
2019-04-16T06:08:59.792Z,7.05
2019-04-16T06:11:35.793Z,7.05
2019-04-16T06:14:07.012Z,7.08
2019-04-16T06:16:57.659Z,7.12
2019-04-16T06:19:34.008Z,7.13
2019-04-16T06:22:13.675Z,7.17
2019-04-16T06:24:49.978Z,7.21
2019-04-16T06:27:23.565Z,7.23
2019-04-16T06:30:13.366Z,7.29
2019-04-16T06:32:59.124Z,7.34
2019-04-16T06:35:43.228Z,7.43
2019-04-16T06:38:08.338Z,7.52
2019-04-16T06:41:03.023Z,7.59
2019-04-16T06:43:36.548Z,7.69
2019-04-16T06:46:13.224Z,7.77
2019-04-16T06:48:52.729Z,7.90
2019-04-16T06:51:26.315Z,8.03
2019-04-16T06:54:15.748Z,8.16
2019-04-16T06:56:52.256Z,8.26
2019-04-16T06:59:30.401Z,8.33
2019-04-16T07:02:03.946Z,8.35
2019-04-16T07:04:37.507Z,8.38
2019-04-16T07:07:14.167Z,8.46
2019-04-16T07:09:57.762Z,8.57
2019-04-16T07:12:29.946Z,8.62
2019-04-16T07:15:02.030Z,8.40
2019-04-16T07:17:34.572Z,8.69
2019-04-16T07:20:13.195Z,8.79
2019-04-16T07:22:41.612Z,8.88
2019-04-16T07:25:14.107Z,9.00
2019-04-16T07:28:03.156Z,9.14
2019-04-16T07:30:39.983Z,9.28
2019-04-16T07:33:12.026Z,9.37
2019-04-16T07:35:45.641Z,9.44
2019-04-16T07:38:22.575Z,9.48
2019-04-16T07:41:04.690Z,9.53
2019-04-16T07:43:54.882Z,9.53
2019-04-16T07:46:32.096Z,9.57
2019-04-16T07:49:05.791Z,9.64
2019-04-16T07:51:55.580Z,9.77
2019-04-16T07:54:32.041Z,9.87
2019-04-16T07:57:04.144Z,9.93
2019-04-16T07:59:36.150Z,9.99
2019-04-16T08:02:08.148Z,9.99
2019-04-16T08:04:40.193Z,9.97
2019-04-16T08:07:12.522Z,10.00
2019-04-16T08:09:44.579Z,10.09
2019-04-16T08:12:30.095Z,10.18
2019-04-16T08:14:50.660Z,10.26
2019-04-16T08:17:22.858Z,10.36
2019-04-16T08:19:55.804Z,10.28
2019-04-16T08:22:28.075Z,10.43
2019-04-16T08:25:04.650Z,10.44
2019-04-16T08:27:36.826Z,10.43
2019-04-16T08:30:12.066Z,10.43
2019-04-16T08:32:45.830Z,10.43
2019-04-16T08:35:17.890Z,10.44
2019-04-16T08:37:49.827Z,10.51
2019-04-16T08:40:21.776Z,10.59
2019-04-16T08:42:57.021Z,10.66
2019-04-16T08:45:27.572Z,10.71
2019-04-16T08:48:00.530Z,10.74
2019-04-16T08:50:33.976Z,10.78
2019-04-16T08:53:06.571Z,10.81
2019-04-16T08:55:38.753Z,10.81
2019-04-16T08:58:12.882Z,10.84
2019-04-16T09:00:47.760Z,10.86
2019-04-16T09:03:20.530Z,10.94
2019-04-16T09:05:52.891Z,11.05
2019-04-16T09:08:32.718Z,11.13
2019-04-16T09:11:04.915Z,11.19
2019-04-16T09:13:47.287Z,11.25
2019-04-16T09:16:18.248Z,11.27
2019-04-16T09:19:07.398Z,11.27
2019-04-16T09:21:43.400Z,11.25
2019-04-16T09:24:26.706Z,11.27
2019-04-16T09:27:13.610Z,11.29
2019-04-16T09:29:50.273Z,11.31
2019-04-16T09:32:29.885Z,11.05
2019-04-16T09:35:20.444Z,11.39
2019-04-16T09:37:54.228Z,11.49
2019-04-16T09:40:28.759Z,11.59
2019-04-16T09:43:15.767Z,11.38
2019-04-16T09:45:37.369Z,11.70
2019-04-16T09:48:10.103Z,11.74
2019-04-16T09:50:46.489Z,11.81
2019-04-16T09:53:15.788Z,11.89
2019-04-16T09:55:50.628Z,11.93
2019-04-16T09:58:27.477Z,11.99
2019-04-16T10:01:01.298Z,12.03
2019-04-16T10:03:35.377Z,12.08
2019-04-16T10:06:07.961Z,12.11
2019-04-16T10:08:44.335Z,12.10
2019-04-16T10:11:13.953Z,12.12
2019-04-16T10:13:45.987Z,12.12
2019-04-16T10:16:19.909Z,12.23
2019-04-16T10:18:52.153Z,12.30
2019-04-16T10:21:24.174Z,12.09
2019-04-16T10:24:00.772Z,12.43
2019-04-16T10:26:32.820Z,12.43
2019-04-16T10:29:06.723Z,12.37
2019-04-16T10:31:38.753Z,12.34
2019-04-16T10:34:11.019Z,12.33
2019-04-16T10:36:43.020Z,12.33
2019-04-16T10:39:16.932Z,12.39
2019-04-16T10:41:56.277Z,12.46
2019-04-16T10:44:44.309Z,12.55
2019-04-16T10:47:35.738Z,12.47
2019-04-16T10:50:24.691Z,12.71
2019-04-16T10:53:14.519Z,12.77
2019-04-16T10:56:06.453Z,12.82
2019-04-16T10:58:46.113Z,12.87
2019-04-16T11:01:22.479Z,12.81
2019-04-16T11:04:04.806Z,12.77
2019-04-16T11:06:42.703Z,12.77
2019-04-16T11:09:14.781Z,12.84
2019-04-16T11:11:46.805Z,12.85
2019-04-16T11:14:18.927Z,12.90
2019-04-16T11:16:51.368Z,12.93
2019-04-16T11:19:23.373Z,12.94
2019-04-16T11:21:55.322Z,12.97
2019-04-16T11:24:27.368Z,13.04
2019-04-16T11:26:59.695Z,13.07
2019-04-16T11:29:31.650Z,13.11
2019-04-16T11:32:03.770Z,13.11
2019-04-16T11:34:35.862Z,13.11
2019-04-16T11:37:09.365Z,13.18
2019-04-16T11:39:41.677Z,13.24
2019-04-16T11:42:13.926Z,13.30
2019-04-16T11:44:50.148Z,13.33
2019-04-16T11:47:20.586Z,13.35
2019-04-16T11:49:52.633Z,13.39
2019-04-16T11:52:24.837Z,13.44
2019-04-16T11:54:57.088Z,13.19
2019-04-16T11:57:33.268Z,13.50
2019-04-16T12:00:09.343Z,13.31
2019-04-16T12:02:43.123Z,13.67
2019-04-16T12:05:16.903Z,13.71
2019-04-16T12:07:50.833Z,13.76
2019-04-16T12:10:27.225Z,13.86
2019-04-16T12:13:17.418Z,14.02
2019-04-16T12:15:53.803Z,14.10
2019-04-16T12:18:33.433Z,14.12
2019-04-16T12:21:09.703Z,14.17
2019-04-16T12:23:43.355Z,14.26
2019-04-16T12:26:19.946Z,14.35
2019-04-16T12:29:05.845Z,14.41
2019-04-16T12:31:55.533Z,14.43
2019-04-16T12:34:41.117Z,14.48
2019-04-16T12:37:14.888Z,14.51
2019-04-16T12:39:57.564Z,14.50
2019-04-16T12:42:41.214Z,14.48
2019-04-16T12:45:31.606Z,14.43
2019-04-16T12:48:05.365Z,14.40
2019-04-16T12:50:39.045Z,14.36
2019-04-16T12:53:13.014Z,14.34
2019-04-16T12:55:49.676Z,14.32
2019-04-16T12:58:41.470Z,14.25
2019-04-16T13:01:24.195Z,14.14
2019-04-16T13:03:57.866Z,14.06
2019-04-16T13:06:40.128Z,14.06
2019-04-16T13:09:16.872Z,14.11
2019-04-16T13:11:50.513Z,14.11
2019-04-16T13:14:30.073Z,13.85
2019-04-16T13:17:03.696Z,14.09
2019-04-16T13:19:37.431Z,14.08
2019-04-16T13:22:11.134Z,14.06
2019-04-16T13:24:50.515Z,14.02
2019-04-16T13:27:27.236Z,13.98
2019-04-16T13:30:01.887Z,13.95
2019-04-16T13:32:33.033Z,13.96
2019-04-16T13:35:07.259Z,14.02
2019-04-16T13:37:39.301Z,14.12
2019-04-16T13:40:14.048Z,14.17
2019-04-16T13:42:46.094Z,14.19
2019-04-16T13:45:25.704Z,14.22
2019-04-16T13:47:56.243Z,14.24
2019-04-16T13:50:40.989Z,14.05
2019-04-16T13:53:14.014Z,14.28
2019-04-16T13:56:04.192Z,14.33
2019-04-16T13:58:37.801Z,14.33
2019-04-16T14:01:17.563Z,14.30
2019-04-16T14:03:49.863Z,14.18
2019-04-16T14:06:22.168Z,14.21
2019-04-16T14:08:54.559Z,14.22
2019-04-16T14:11:26.846Z,14.27
2019-04-16T14:13:59.317Z,14.34
2019-04-16T14:16:31.878Z,14.41
2019-04-16T14:19:06.040Z,14.39
2019-04-16T14:21:39.613Z,14.10
2019-04-16T14:24:12.959Z,14.33
2019-04-16T14:26:45.311Z,14.34
2019-04-16T14:29:17.967Z,14.39
2019-04-16T14:31:49.997Z,14.17
2019-04-16T14:34:23.930Z,14.47
2019-04-16T14:36:56.974Z,14.45
2019-04-16T14:39:31.317Z,14.41
2019-04-16T14:42:03.561Z,14.37
2019-04-16T14:44:40.212Z,14.36
2019-04-16T14:47:12.254Z,14.39
2019-04-16T14:49:44.306Z,14.40
2019-04-16T14:52:16.323Z,14.42
2019-04-16T14:54:52.991Z,14.46
2019-04-16T14:57:25.016Z,14.48
2019-04-16T15:00:15.111Z,14.49
2019-04-16T15:02:49.077Z,14.49
2019-04-16T15:05:22.732Z,14.47
2019-04-16T15:07:59.378Z,14.46
2019-04-16T15:10:50.965Z,14.42
2019-04-16T15:13:24.869Z,14.39
2019-04-16T15:16:09.438Z,14.38
2019-04-16T15:18:43.268Z,14.40
2019-04-16T15:21:29.064Z,14.44
2019-04-16T15:24:02.984Z,14.46
2019-04-16T15:26:39.610Z,14.48
2019-04-16T15:29:13.176Z,14.49
2019-04-16T15:32:06.131Z,14.47
2019-04-16T15:34:43.031Z,14.47
2019-04-16T15:37:15.192Z,14.48
2019-04-16T15:39:54.806Z,14.46
2019-04-16T15:42:28.507Z,14.44
2019-04-16T15:45:02.167Z,14.41
2019-04-16T15:47:47.849Z,14.38
2019-04-16T15:50:35.764Z,14.35
2019-04-16T15:53:09.158Z,14.32
2019-04-16T15:55:42.755Z,14.30
2019-04-16T15:58:16.358Z,14.26
2019-04-16T16:01:06.045Z,14.24
2019-04-16T16:03:55.907Z,14.23
2019-04-16T16:06:29.774Z,14.20
2019-04-16T16:09:13.109Z,14.17
2019-04-16T16:11:58.876Z,14.13
2019-04-16T16:14:34.658Z,14.05
2019-04-16T16:17:04.755Z,14.00
2019-04-16T16:19:36.811Z,13.99
2019-04-16T16:22:11.979Z,14.00
2019-04-16T16:24:43.398Z,13.96
2019-04-16T16:27:15.753Z,13.88
2019-04-16T16:29:47.756Z,13.82
2019-04-16T16:32:20.038Z,13.77
2019-04-16T16:34:52.064Z,13.73
2019-04-16T16:37:24.049Z,13.70
2019-04-16T16:39:56.300Z,13.67
2019-04-16T16:42:28.333Z,13.62
2019-04-16T16:45:01.638Z,13.55
2019-04-16T16:47:39.542Z,13.50
2019-04-16T16:50:12.069Z,13.46
2019-04-16T16:52:51.980Z,13.39
2019-04-16T16:55:25.600Z,13.31
2019-04-16T16:57:59.617Z,13.24
2019-04-16T17:00:49.385Z,13.20
2019-04-16T17:03:23.303Z,13.14
2019-04-16T17:05:56.572Z,13.11
2019-04-16T17:08:30.223Z,13.10
2019-04-16T17:11:14.614Z,12.80
2019-04-16T17:13:36.329Z,13.05
2019-04-16T17:16:13.318Z,13.02
2019-04-16T17:18:45.315Z,12.97
2019-04-16T17:21:16.264Z,12.94
2019-04-16T17:23:48.548Z,12.91
2019-04-16T17:26:20.622Z,12.86
2019-04-16T17:28:52.571Z,12.84
2019-04-16T17:31:25.031Z,12.77
2019-04-16T17:33:57.443Z,12.74
2019-04-16T17:36:29.766Z,12.70
2019-04-16T17:39:01.831Z,12.63
2019-04-16T17:41:41.636Z,12.56
2019-04-16T17:44:15.302Z,12.49
2019-04-16T17:46:48.901Z,12.42
2019-04-16T17:49:36.092Z,12.34
2019-04-16T17:52:18.727Z,12.28
2019-04-16T17:55:07.576Z,12.24
2019-04-16T17:57:42.842Z,12.19
2019-04-16T18:00:16.647Z,12.12
2019-04-16T18:02:50.648Z,12.04
2019-04-16T18:05:33.373Z,12.00
2019-04-16T18:08:16.581Z,11.92
2019-04-16T18:10:50.272Z,11.88
2019-04-16T18:13:32.263Z,11.83
2019-04-16T18:16:16.730Z,11.74
2019-04-16T18:19:05.856Z,11.68
2019-04-16T18:21:42.916Z,11.62
2019-04-16T18:24:31.879Z,11.58
2019-04-16T18:27:08.758Z,11.55
2019-04-16T18:29:45.920Z,11.48
2019-04-16T18:32:37.633Z,11.43
2019-04-16T18:35:25.961Z,11.40
2019-04-16T18:37:59.606Z,11.38
2019-04-16T18:40:38.993Z,11.36
2019-04-16T18:43:12.616Z,11.32
2019-04-16T18:46:04.355Z,11.30
2019-04-16T18:48:38.282Z,10.98
2019-04-16T18:51:10.239Z,11.01
2019-04-16T18:53:43.371Z,11.29
2019-04-16T18:56:16.120Z,11.25
2019-04-16T18:58:48.082Z,11.24
2019-04-16T19:01:25.079Z,11.22
2019-04-16T19:03:57.114Z,11.15
2019-04-16T19:06:29.259Z,11.09
2019-04-16T19:09:01.384Z,11.06
2019-04-16T19:11:33.413Z,11.01
2019-04-16T19:14:05.650Z,10.97
2019-04-16T19:16:37.928Z,10.95
2019-04-16T19:19:10.199Z,10.92
2019-04-16T19:21:42.857Z,10.90
2019-04-16T19:24:15.313Z,10.87
2019-04-16T19:26:47.519Z,10.86
2019-04-16T19:29:19.922Z,10.81
2019-04-16T19:31:54.919Z,10.79
2019-04-16T19:34:26.012Z,10.76
2019-04-16T19:36:59.669Z,10.74
2019-04-16T19:39:32.086Z,10.70
2019-04-16T19:42:05.885Z,10.68
2019-04-16T19:44:39.898Z,10.63
2019-04-16T19:47:12.086Z,10.60
2019-04-16T19:49:44.298Z,10.58
2019-04-16T19:52:17.302Z,10.56
2019-04-16T19:54:50.158Z,10.29
2019-04-16T19:57:22.357Z,10.53
2019-04-16T19:59:54.998Z,10.52
2019-04-16T20:02:33.071Z,10.51
2019-04-16T20:05:01.348Z,10.47
2019-04-16T20:07:33.639Z,10.44
2019-04-16T20:10:07.235Z,10.42
2019-04-16T20:12:39.509Z,10.36
2019-04-16T20:15:12.770Z,10.32
2019-04-16T20:17:45.073Z,10.32
2019-04-16T20:20:17.357Z,10.29
2019-04-16T20:22:49.689Z,9.98
2019-04-16T20:25:22.035Z,10.27
2019-04-16T20:27:54.267Z,10.26
2019-04-16T20:30:26.582Z,10.28
2019-04-16T20:32:58.794Z,10.26
2019-04-16T20:35:31.045Z,10.27
2019-04-16T20:38:03.339Z,10.26
2019-04-16T20:40:36.312Z,10.23
2019-04-16T20:43:08.542Z,10.21
2019-04-16T20:45:40.679Z,10.18
2019-04-16T20:48:13.220Z,10.17
2019-04-16T20:50:45.243Z,10.16
2019-04-16T20:53:17.823Z,10.15
2019-04-16T20:55:50.039Z,10.15
2019-04-16T20:58:22.091Z,10.14
2019-04-16T21:00:58.368Z,9.81
2019-04-16T21:03:31.173Z,10.10
2019-04-16T21:06:07.129Z,10.10
2019-04-16T21:08:37.678Z,10.07
2019-04-16T21:11:09.887Z,10.06
2019-04-16T21:13:42.205Z,10.05
2019-04-16T21:16:14.241Z,10.05
2019-04-16T21:18:46.318Z,10.03
2019-04-16T21:21:19.592Z,10.02
2019-04-16T21:23:52.400Z,10.00
2019-04-16T21:26:24.354Z,10.00
2019-04-16T21:29:02.005Z,9.98
2019-04-16T21:31:42.211Z,9.96
2019-04-16T21:34:24.932Z,9.92
2019-04-16T21:37:10.671Z,9.89
2019-04-16T21:39:47.018Z,9.87
2019-04-16T21:42:17.903Z,9.86
2019-04-16T21:44:49.815Z,9.87
2019-04-16T21:47:23.639Z,9.86
2019-04-16T21:49:55.535Z,9.83
2019-04-16T21:52:27.464Z,9.79
2019-04-16T21:55:02.506Z,9.80
2019-04-16T21:57:33.107Z,9.77
2019-04-16T22:00:09.811Z,9.76
2019-04-16T22:02:41.811Z,9.74
2019-04-16T22:05:16.753Z,9.73
2019-04-16T22:07:47.848Z,9.70
2019-04-16T22:10:20.059Z,9.70
2019-04-16T22:12:52.352Z,9.70
2019-04-16T22:15:25.483Z,9.68
2019-04-16T22:17:58.029Z,9.69
2019-04-16T22:20:31.752Z,9.68
2019-04-16T22:23:03.719Z,9.68
2019-04-16T22:25:35.950Z,9.65
2019-04-16T22:28:11.396Z,9.62
2019-04-16T22:30:41.559Z,9.61
2019-04-16T22:33:13.502Z,9.61
2019-04-16T22:35:45.440Z,9.60
2019-04-16T22:38:17.470Z,9.57
2019-04-16T22:40:51.540Z,9.56
2019-04-16T22:43:35.328Z,9.55
2019-04-16T22:46:08.908Z,9.48
2019-04-16T22:48:42.572Z,9.54
2019-04-16T22:51:14.625Z,9.50
2019-04-16T22:53:49.509Z,9.50
2019-04-16T22:56:22.042Z,9.49
2019-04-16T22:58:54.055Z,9.47
2019-04-16T23:01:27.766Z,9.46
2019-04-16T23:03:59.736Z,9.47
2019-04-16T23:06:31.687Z,9.46
2019-04-16T23:09:05.339Z,9.44
2019-04-16T23:11:39.159Z,9.42
2019-04-16T23:14:11.229Z,9.42
2019-04-16T23:16:43.175Z,9.41
2019-04-16T23:19:17.473Z,9.39
2019-04-16T23:21:48.760Z,9.37
2019-04-16T23:24:23.375Z,9.37
2019-04-16T23:26:54.647Z,9.35
2019-04-16T23:29:26.591Z,9.33
2019-04-16T23:31:58.621Z,9.33
2019-04-16T23:34:30.533Z,9.32
2019-04-16T23:37:02.954Z,9.30
2019-04-16T23:39:36.692Z,9.29
2019-04-16T23:42:08.623Z,9.27
2019-04-16T23:45:00.216Z,9.27
2019-04-16T23:47:42.024Z,9.27
2019-04-16T23:50:18.002Z,9.25
2019-04-16T23:53:00.404Z,9.25
2019-04-16T23:55:36.971Z,9.23
2019-04-16T23:58:13.003Z,9.22
